Maria G — 9HA4557 — position and weather

sailwx.info

Track history (hours):
 
Tides and Currents Weather Stations Pressure Air Temp Water Temp Dewpoint Dewpoint Depression Visibility Wind Speed Wind Dir Waves Ship Positions

Maria G

Last reported at 2018-Jun-12 19:10 UTC. Time now 2018-Jun-20 07:53 UTC.
Position N 39°48' W 030°18'.

Length 200 m; draft 10.4 m.

Type: Cargo ship. MMSI: 248203000.

Date/timePositionNaut miles runAvg speedWind from/ knotsBaromVisibWave heightAir tempDewpointWater temp
2018-Jun-12 19:10N 39°48' W 030°18'211.3
2018-Jun-12 19:00N 39°48' W 030°15'611.1
2018-Jun-12 18:30N 39°46' W 030°08'911.3
2018-Jun-12 17:40N 39°44' W 029°56'811.3
2018-Jun-12 17:00N 39°43' W 029°47'611.7
2018-Jun-12 16:30N 39°42' W 029°39'611.0
2018-Jun-12 16:01N 39°41' W 029°32'4 8.8
2018-Jun-12 15:30N 39°41' W 029°26'1 1.2
2018-Jun-12 14:32N 39°40' W 029°25'0 9.0
2018-Jun-12 14:30N 39°40' W 029°25'510.1
2018-Jun-12 14:00N 39°38' W 029°19'611.6
2018-Jun-12 13:30N 39°37' W 029°11'611.4
2018-Jun-12 13:00N 39°36' W 029°04'611.3
2018-Jun-12 12:30N 39°35' W 028°57'611.5
2018-Jun-12 12:00N 39°33' W 028°50'611.4
2018-Jun-12 11:30N 39°32' W 028°42'611.1
2018-Jun-12 11:01N 39°31' W 028°35'611.1
2018-Jun-12 10:30N 39°30' W 028°28'611.1
2018-Jun-12 10:00N 39°29' W 028°21'510.9
2018-Jun-12 09:31N 39°28' W 028°14'510.9
2018-Jun-12 09:00N 39°27' W 028°07'511.0
2018-Jun-12 08:30N 39°26' W 028°00'511.0
2018-Jun-12 08:01N 39°25' W 027°53'510.8
2018-Jun-12 07:30N 39°24' W 027°47'510.7
2018-Jun-12 07:00N 39°22' W 027°40'511.0
2018-Jun-12 06:31N 39°21' W 027°33'611.2
2018-Jun-12 06:00N 39°20' W 027°26'511.1
2018-Jun-12 05:30N 39°18' W 027°19'510.9
2018-Jun-12 05:01N 39°17' W 027°12'4711.2
2018-Jun-12 00:48N 39°08' W 026°13'311.3
2018-Jun-12 00:30N 39°07' W 026°08'2911.1
2018-Jun-11 21:53N 39°01' W 025°32'411.4
2018-Jun-11 21:30N 38°60' W 025°27'611.4
2018-Jun-11 20:57N 38°58' W 025°18'611.5
2018-Jun-11 20:27N 38°57' W 025°11'511.6
2018-Jun-11 20:00N 38°57' W 025°05'1211.6
2018-Jun-11 18:57N 38°54' W 024°49'511.6
2018-Jun-11 18:30N 38°53' W 024°43'611.8
2018-Jun-11 17:59N 38°51' W 024°35'611.8
2018-Jun-11 17:30N 38°50' W 024°28'611.8
2018-Jun-11 17:00N 38°49' W 024°21'611.5
2018-Jun-11 16:30N 38°48' W 024°14'611.6
2018-Jun-11 16:00N 38°47' W 024°06'611.6
2018-Jun-11 15:30N 38°45' W 023°59'611.6
2018-Jun-11 15:00N 38°44' W 023°52'612.0
2018-Jun-11 14:30N 38°43' W 023°44'  
2018-Jun-08 08:31N 35°58' W 005°33'310.0
2018-Jun-08 08:14N 35°59' W 005°30'2 9.6
2018-Jun-08 08:00N 35°60' W 005°27'4 8.7
2018-Jun-08 07:30N 36°01' W 005°22'4 8.3
2018-Jun-08 07:00N 36°02' W 005°17'22510.9
2018-Jun-07 10:29N 36°40' W 000°42'  
Track history (hours):
 
Tides and Currents Weather Stations Pressure Air Temp Water Temp Dewpoint Dewpoint Depression Visibility Wind Speed Wind Dir Waves Ship Positions

Maria G

Last reported at 2018-Jun-12 19:10 UTC. Time now 2018-Jun-20 07:53 UTC.
Position N 39°48' W 030°18'.

Length 200 m; draft 10.4 m.

Type: Cargo ship. MMSI: 248203000.

Date/timePositionNaut miles runAvg speedWind from/ knotsBaromVisibWave heightAir tempDewpointWater temp
2018-Jun-12 19:10N 39°48' W 030°18'211.3
2018-Jun-12 19:00N 39°48' W 030°15'611.1
2018-Jun-12 18:30N 39°46' W 030°08'911.3
2018-Jun-12 17:40N 39°44' W 029°56'811.3
2018-Jun-12 17:00N 39°43' W 029°47'611.7
2018-Jun-12 16:30N 39°42' W 029°39'611.0
2018-Jun-12 16:01N 39°41' W 029°32'4 8.8
2018-Jun-12 15:30N 39°41' W 029°26'1 1.2
2018-Jun-12 14:32N 39°40' W 029°25'0 9.0
2018-Jun-12 14:30N 39°40' W 029°25'510.1
2018-Jun-12 14:00N 39°38' W 029°19'611.6
2018-Jun-12 13:30N 39°37' W 029°11'611.4
2018-Jun-12 13:00N 39°36' W 029°04'611.3
2018-Jun-12 12:30N 39°35' W 028°57'611.5
2018-Jun-12 12:00N 39°33' W 028°50'611.4
2018-Jun-12 11:30N 39°32' W 028°42'611.1
2018-Jun-12 11:01N 39°31' W 028°35'611.1
2018-Jun-12 10:30N 39°30' W 028°28'611.1
2018-Jun-12 10:00N 39°29' W 028°21'510.9
2018-Jun-12 09:31N 39°28' W 028°14'510.9
2018-Jun-12 09:00N 39°27' W 028°07'511.0
2018-Jun-12 08:30N 39°26' W 028°00'511.0
2018-Jun-12 08:01N 39°25' W 027°53'510.8
2018-Jun-12 07:30N 39°24' W 027°47'510.7
2018-Jun-12 07:00N 39°22' W 027°40'511.0
2018-Jun-12 06:31N 39°21' W 027°33'611.2
2018-Jun-12 06:00N 39°20' W 027°26'511.1
2018-Jun-12 05:30N 39°18' W 027°19'510.9
2018-Jun-12 05:01N 39°17' W 027°12'4711.2
2018-Jun-12 00:48N 39°08' W 026°13'311.3
2018-Jun-12 00:30N 39°07' W 026°08'2911.1
2018-Jun-11 21:53N 39°01' W 025°32'411.4
2018-Jun-11 21:30N 38°60' W 025°27'611.4
2018-Jun-11 20:57N 38°58' W 025°18'611.5
2018-Jun-11 20:27N 38°57' W 025°11'511.6
2018-Jun-11 20:00N 38°57' W 025°05'1211.6
2018-Jun-11 18:57N 38°54' W 024°49'511.6
2018-Jun-11 18:30N 38°53' W 024°43'611.8
2018-Jun-11 17:59N 38°51' W 024°35'611.8
2018-Jun-11 17:30N 38°50' W 024°28'611.8
2018-Jun-11 17:00N 38°49' W 024°21'611.5
2018-Jun-11 16:30N 38°48' W 024°14'611.6
2018-Jun-11 16:00N 38°47' W 024°06'611.6
2018-Jun-11 15:30N 38°45' W 023°59'611.6
2018-Jun-11 15:00N 38°44' W 023°52'612.0
2018-Jun-11 14:30N 38°43' W 023°44'  
2018-Jun-08 08:31N 35°58' W 005°33'310.0
2018-Jun-08 08:14N 35°59' W 005°30'2 9.6
2018-Jun-08 08:00N 35°60' W 005°27'4 8.7
2018-Jun-08 07:30N 36°01' W 005°22'4 8.3
2018-Jun-08 07:00N 36°02' W 005°17'22510.9
2018-Jun-07 10:29N 36°40' W 000°42'  

Dump ship's entire track history